Time;durP1;ratioP1;P1;durP2;ratioP2;P2;SDS_P1;SDS_P2;PMS_P1;PMS_P2;Temp;Humidity;BMP_temperature;BMP_pressure;BME280_temperature;BME280_humidity;BME280_pressure;Samples;Min_cycle;Max_cycle;Signal;HPM_P1;HPM_P2
2022/05/21 00:02:16;;;;;;;;;;;18.30;98.70;;;;;;5054871;28;20283;-81
2022/05/21 00:04:42;;;;;;;;;;;18.30;98.90;;;;;;5054432;28;19947;-81
2022/05/21 00:07:10;;;;;;;;;;;18.20;98.70;;;;;;5054518;28;19959;-81
2022/05/21 00:09:36;;;;;;;;;;;18.20;98.70;;;;;;5036302;28;19962;-81
2022/05/21 00:12:02;;;;;;;;;;;18.20;98.60;;;;;;5054846;28;19978;-81
2022/05/21 00:14:29;;;;;;;;;;;18.20;98.60;;;;;;5054572;28;19904;-81
2022/05/21 00:16:55;;;;;;;;;;;18.10;98.80;;;;;;5054560;28;19966;-81
2022/05/21 00:19:21;;;;;;;;;;;18.10;99.00;;;;;;5054350;28;20333;-81
2022/05/21 00:21:47;;;;;;;;;;;18.00;99.30;;;;;;5036387;28;19973;-81
2022/05/21 00:24:13;;;;;;;;;;;18.00;99.50;;;;;;5036292;28;19909;-80
2022/05/21 00:26:39;;;;;;;;;;;17.90;99.80;;;;;;5035637;28;19920;-80
2022/05/21 00:29:04;;;;;;;;;;;17.90;99.90;;;;;;5053804;28;19912;-81
2022/05/21 00:31:30;;;;;;;;;;;17.80;99.90;;;;;;5053807;28;19904;-80
2022/05/21 00:33:56;;;;;;;;;;;17.70;99.90;;;;;;5054206;28;20004;-80
2022/05/21 00:36:22;;;;;;;;;;;17.70;99.90;;;;;;5053946;28;20017;-80
2022/05/21 00:38:48;;;;;;;;;;;17.70;99.90;;;;;;5053502;28;19911;-80
2022/05/21 00:41:15;;;;;;;;;;;17.60;99.90;;;;;;5053634;28;19916;-80
2022/05/21 00:43:41;;;;;;;;;;;17.60;99.90;;;;;;5053712;28;19905;-80
2022/05/21 00:46:27;;;;;;;;;;;17.60;99.90;;;;;;5053617;28;19927;-80
2022/05/21 00:48:55;;;;;;;;;;;17.60;99.90;;;;;;5053554;28;20387;-80
2022/05/21 00:51:25;;;;;;;;;;;17.60;99.90;;;;;;5047962;28;20023;-80
2022/05/21 00:53:54;;;;;;;;;;;17.60;99.90;;;;;;5033304;28;19909;-80
2022/05/21 00:56:20;;;;;;;;;;;17.60;99.90;;;;;;5033386;28;19981;-81
2022/05/21 01:01:34;;;;;;;;;;;17.60;99.90;;;;;;5033153;28;19924;-81
2022/05/21 01:04:00;;;;;;;;;;;17.50;99.90;;;;;;5033153;28;19909;-81
2022/05/21 01:06:25;;;;;;;;;;;17.50;99.90;;;;;;5033540;28;19996;-81
2022/05/21 01:08:51;;;;;;;;;;;17.50;99.90;;;;;;5015200;28;19972;-81
2022/05/21 01:11:18;;;;;;;;;;;17.50;99.90;;;;;;5032506;28;19979;-81
2022/05/21 01:13:45;;;;;;;;;;;17.40;99.90;;;;;;5032850;28;20375;-81
2022/05/21 01:16:11;;;;;;;;;;;17.40;99.90;;;;;;5033260;28;20276;-81
2022/05/21 01:18:37;;;;;;;;;;;17.40;99.90;;;;;;5033398;28;20260;-81
2022/05/21 01:21:04;;;;;;;;;;;17.40;99.90;;;;;;5015093;28;20276;-80
2022/05/21 01:23:30;;;;;;;;;;;17.40;99.90;;;;;;5032946;28;20018;-80
2022/05/21 01:25:57;;;;;;;;;;;17.40;99.90;;;;;;5032652;28;19905;-81
2022/05/21 01:28:24;;;;;;;;;;;17.30;99.90;;;;;;5014626;28;19924;-80
2022/05/21 01:30:54;;;;;;;;;;;17.40;99.90;;;;;;5032498;28;20397;-80
2022/05/21 01:33:28;;;;;;;;;;;17.30;99.90;;;;;;5032701;28;19916;-80
2022/05/21 01:35:53;;;;;;;;;;;17.30;99.90;;;;;;5032219;28;19913;-80
2022/05/21 01:38:21;;;;;;;;;;;17.30;99.90;;;;;;5032659;28;19999;-81
2022/05/21 01:40:47;;;;;;;;;;;17.30;99.90;;;;;;5032427;28;19905;-80
2022/05/21 01:45:58;;;;;;;;;;;17.30;99.90;;;;;;5032657;28;19912;-80
2022/05/21 01:48:25;;;;;;;;;;;17.30;99.90;;;;;;5032044;28;19917;-80
2022/05/21 01:50:52;;;;;;;;;;;17.30;99.90;;;;;;5031995;28;19951;-81
2022/05/21 01:53:18;;;;;;;;;;;17.20;99.90;;;;;;5032173;28;20008;-81
2022/05/21 01:55:44;;;;;;;;;;;17.20;99.90;;;;;;5032395;28;19916;-81
2022/05/21 01:58:10;;;;;;;;;;;17.10;99.90;;;;;;5032081;28;19951;-81
2022/05/21 02:00:36;;;;;;;;;;;17.10;99.90;;;;;;5031853;28;19921;-81
2022/05/21 02:03:02;;;;;;;;;;;17.00;99.90;;;;;;5014231;28;19912;-81
2022/05/21 02:05:28;;;;;;;;;;;17.00;99.90;;;;;;5032069;28;19911;-81
2022/05/21 02:07:54;;;;;;;;;;;16.90;99.90;;;;;;5032025;28;19951;-81
2022/05/21 02:10:20;;;;;;;;;;;17.00;99.90;;;;;;5031953;28;20309;-80
2022/05/21 02:12:45;;;;;;;;;;;17.00;99.90;;;;;;5032318;28;19913;-81
2022/05/21 02:15:11;;;;;;;;;;;17.00;99.90;;;;;;5031809;28;19905;-81
2022/05/21 02:17:37;;;;;;;;;;;17.00;99.90;;;;;;5031797;28;19905;-81
2022/05/21 02:20:03;;;;;;;;;;;16.90;99.80;;;;;;5013798;28;19964;-80
2022/05/21 02:22:29;;;;;;;;;;;16.90;99.70;;;;;;5031775;28;19984;-80
2022/05/21 02:24:55;;;;;;;;;;;16.90;99.50;;;;;;5013619;28;19905;-80
2022/05/21 02:27:21;;;;;;;;;;;16.80;99.50;;;;;;5031721;28;19912;-80
2022/05/21 02:29:48;;;;;;;;;;;16.80;99.40;;;;;;5013990;28;20001;-80
2022/05/21 02:32:14;;;;;;;;;;;16.80;99.30;;;;;;5031286;28;20284;-80
2022/05/21 02:34:41;;;;;;;;;;;16.80;99.10;;;;;;5030649;28;19911;-80
2022/05/21 02:39:52;;;;;;;;;;;16.90;98.90;;;;;;5031525;28;19913;-80
2022/05/21 02:45:03;;;;;;;;;;;16.80;98.80;;;;;;5031561;28;19964;-80
2022/05/21 02:47:29;;;;;;;;;;;16.80;98.80;;;;;;5031364;28;20030;-80
2022/05/21 02:49:55;;;;;;;;;;;16.80;98.70;;;;;;5030375;28;19909;-80
2022/05/21 02:52:21;;;;;;;;;;;16.80;98.60;;;;;;5030477;28;20004;-80
2022/05/21 02:54:47;;;;;;;;;;;16.80;98.40;;;;;;5030160;28;20337;-80
2022/05/21 02:57:13;;;;;;;;;;;16.80;98.50;;;;;;5031364;28;19909;-80
2022/05/21 02:59:39;;;;;;;;;;;16.70;98.50;;;;;;5031406;28;19909;-81
2022/05/21 03:02:06;;;;;;;;;;;16.70;98.50;;;;;;5031365;28;20312;-80
2022/05/21 03:04:32;;;;;;;;;;;16.70;98.40;;;;;;5031228;28;19912;-80
2022/05/21 03:06:58;;;;;;;;;;;16.80;98.30;;;;;;5031242;28;19905;-80
2022/05/21 03:12:08;;;;;;;;;;;16.70;98.20;;;;;;5032127;28;20262;-80
2022/05/21 03:14:34;;;;;;;;;;;16.70;98.30;;;;;;5031960;28;19959;-80
2022/05/21 03:17:00;;;;;;;;;;;16.70;98.10;;;;;;5031842;28;19920;-80
2022/05/21 03:19:27;;;;;;;;;;;16.70;98.10;;;;;;5031597;28;19990;-80
2022/05/21 03:21:53;;;;;;;;;;;16.70;98.10;;;;;;5031777;28;19916;-81
2022/05/21 03:24:32;;;;;;;;;;;16.70;98.10;;;;;;5032335;28;20296;-78
2022/05/21 03:27:39;;;;;;;;;;;16.70;98.10;;;;;;5014935;28;19904;-78
2022/05/21 03:30:07;;;;;;;;;;;16.60;98.20;;;;;;5030686;28;19913;-80
2022/05/21 03:32:33;;;;;;;;;;;16.70;97.90;;;;;;5032843;28;19905;-81
2022/05/21 03:34:58;;;;;;;;;;;16.70;97.80;;;;;;5036148;28;19975;-80
2022/05/21 03:37:24;;;;;;;;;;;16.70;97.50;;;;;;5018154;28;19962;-80
2022/05/21 03:39:50;;;;;;;;;;;16.70;97.30;;;;;;5035809;28;19905;-80
2022/05/21 03:42:17;;;;;;;;;;;16.70;97.40;;;;;;5035840;28;19912;-80
2022/05/21 03:44:43;;;;;;;;;;;16.70;97.50;;;;;;5035732;28;19940;-80
2022/05/21 03:47:10;;;;;;;;;;;16.70;97.50;;;;;;5035488;28;19928;-80
2022/05/21 03:49:36;;;;;;;;;;;16.70;97.40;;;;;;5036217;28;19909;-80
2022/05/21 03:52:02;;;;;;;;;;;16.70;97.70;;;;;;5035553;28;19909;-80
2022/05/21 03:54:28;;;;;;;;;;;16.70;97.40;;;;;;5035751;28;20272;-80
2022/05/21 03:56:55;;;;;;;;;;;16.70;97.30;;;;;;5035611;28;19967;-79
2022/05/21 03:59:20;;;;;;;;;;;16.60;97.30;;;;;;5035704;28;19905;-80
2022/05/21 04:01:46;;;;;;;;;;;16.50;97.40;;;;;;5035506;28;19917;-80
2022/05/21 04:04:12;;;;;;;;;;;16.50;97.60;;;;;;5036083;28;20238;-80
2022/05/21 04:06:38;;;;;;;;;;;16.50;98.00;;;;;;5035793;28;19992;-80
2022/05/21 04:09:04;;;;;;;;;;;16.40;97.90;;;;;;5035548;28;20358;-80
2022/05/21 04:11:29;;;;;;;;;;;16.30;98.00;;;;;;5035760;28;20362;-80
2022/05/21 04:13:56;;;;;;;;;;;16.30;98.20;;;;;;5035756;28;19905;-80
2022/05/21 04:16:22;;;;;;;;;;;16.20;98.30;;;;;;5035301;28;20254;-80
2022/05/21 04:18:47;;;;;;;;;;;16.20;98.40;;;;;;5035739;28;19912;-81
2022/05/21 04:21:13;;;;;;;;;;;16.10;98.40;;;;;;5036567;28;19979;-79
2022/05/21 04:23:39;;;;;;;;;;;16.20;98.30;;;;;;5036069;28;20425;-80
2022/05/21 04:26:05;;;;;;;;;;;16.20;98.30;;;;;;5018186;28;19920;-80
2022/05/21 04:28:31;;;;;;;;;;;16.20;98.50;;;;;;5035816;28;19924;-80
2022/05/21 04:30:56;;;;;;;;;;;16.20;98.50;;;;;;5018096;28;19905;-80
2022/05/21 04:33:22;;;;;;;;;;;16.10;98.50;;;;;;5036348;28;19905;-80
2022/05/21 04:38:35;;;;;;;;;;;16.20;98.10;;;;;;5035876;28;19924;-80
2022/05/21 04:41:01;;;;;;;;;;;16.30;98.00;;;;;;5035401;28;19912;-80
2022/05/21 04:43:27;;;;;;;;;;;16.30;98.00;;;;;;5035472;28;19912;-80
2022/05/21 04:45:56;;;;;;;;;;;16.40;97.90;;;;;;5035612;28;19988;-80
2022/05/21 04:48:22;;;;;;;;;;;16.40;97.80;;;;;;5017665;28;19960;-80
2022/05/21 04:50:48;;;;;;;;;;;16.50;97.50;;;;;;5036073;28;19962;-80
2022/05/21 04:53:13;;;;;;;;;;;16.60;97.20;;;;;;5035313;28;19992;-80
2022/05/21 04:55:40;;;;;;;;;;;16.60;97.20;;;;;;5036036;28;19905;-81
2022/05/21 04:58:06;;;;;;;;;;;16.70;97.10;;;;;;5035695;28;19905;-81
2022/05/21 05:00:32;;;;;;;;;;;16.80;97.00;;;;;;5035550;28;19924;-81
2022/05/21 05:02:58;;;;;;;;;;;16.90;97.10;;;;;;5035863;28;20006;-82
2022/05/21 05:05:24;;;;;;;;;;;17.80;96.30;;;;;;5035243;28;19948;-80
2022/05/21 05:07:50;;;;;;;;;;;19.40;94.00;;;;;;5035035;28;20404;-80
2022/05/21 05:10:17;;;;;;;;;;;20.90;91.60;;;;;;5035018;28;20015;-81
2022/05/21 05:12:42;;;;;;;;;;;23.10;88.50;;;;;;5035159;28;19905;-81
2022/05/21 05:15:08;;;;;;;;;;;24.80;82.00;;;;;;5035091;28;20314;-80
2022/05/21 05:17:34;;;;;;;;;;;26.40;77.50;;;;;;5034905;28;19958;-81
2022/05/21 05:20:01;;;;;;;;;;;26.80;75.20;;;;;;5034939;28;19912;-81
2022/05/21 05:22:27;;;;;;;;;;;27.60;73.20;;;;;;5035362;28;19958;-80
2022/05/21 05:24:53;;;;;;;;;;;28.20;70.60;;;;;;5034841;28;20055;-80
2022/05/21 05:27:19;;;;;;;;;;;28.40;69.90;;;;;;5035065;28;20370;-81
2022/05/21 05:29:45;;;;;;;;;;;28.90;67.30;;;;;;5033987;28;19913;-85
2022/05/21 05:32:11;;;;;;;;;;;29.70;67.10;;;;;;5034085;28;20264;-80
2022/05/21 05:34:36;;;;;;;;;;;30.40;64.50;;;;;;5033587;28;19905;-82
2022/05/21 05:37:02;;;;;;;;;;;31.70;62.00;;;;;;5033834;28;20345;-83
2022/05/21 05:39:30;;;;;;;;;;;32.80;60.20;;;;;;5033867;28;20317;-82
2022/05/21 05:41:57;;;;;;;;;;;33.90;58.10;;;;;;5033525;28;19916;-83
2022/05/21 05:44:23;;;;;;;;;;;34.60;56.90;;;;;;5034104;28;20361;-83
2022/05/21 05:46:49;;;;;;;;;;;34.80;55.70;;;;;;5033696;28;19928;-82
2022/05/21 05:49:15;;;;;;;;;;;35.90;54.60;;;;;;5033936;28;19920;-82
2022/05/21 05:51:41;;;;;;;;;;;35.80;53.70;;;;;;5032949;28;19936;-82
2022/05/21 05:54:07;;;;;;;;;;;35.40;53.40;;;;;;5015360;28;19987;-81
2022/05/21 05:56:33;;;;;;;;;;;34.80;53.50;;;;;;5032252;28;19952;-81
2022/05/21 06:01:44;;;;;;;;;;;36.50;52.40;;;;;;5032095;28;19955;-82
2022/05/21 06:04:10;;;;;;;;;;;35.90;51.80;;;;;;5014435;28;19920;-82
2022/05/21 06:06:36;;;;;;;;;;;35.30;53.10;;;;;;5032729;28;19905;-82
2022/05/21 06:09:02;;;;;;;;;;;35.00;53.10;;;;;;5032755;28;19913;-81
2022/05/21 06:11:32;;;;;;;;;;;34.90;53.10;;;;;;5032205;28;20291;-81
2022/05/21 06:13:58;;;;;;;;;;;34.50;53.90;;;;;;5032421;28;19959;-83
2022/05/21 06:16:24;;;;;;;;;;;34.20;53.80;;;;;;5032588;28;19909;-83
2022/05/21 06:18:50;;;;;;;;;;;34.00;54.60;;;;;;5033515;28;19935;-83
2022/05/21 06:21:16;;;;;;;;;;;33.90;54.50;;;;;;5033195;28;19905;-82
2022/05/21 06:23:43;;;;;;;;;;;33.70;55.00;;;;;;5033342;28;19905;-82
2022/05/21 06:26:11;;;;;;;;;;;34.40;54.70;;;;;;5032775;28;20023;-81
2022/05/21 06:28:37;;;;;;;;;;;34.80;53.90;;;;;;5032623;28;19935;-82
2022/05/21 06:31:04;;;;;;;;;;;34.50;54.30;;;;;;5015133;28;20372;-82
2022/05/21 06:33:30;;;;;;;;;;;34.70;53.60;;;;;;5032914;28;19905;-81
2022/05/21 06:36:06;;;;;;;;;;;34.90;54.30;;;;;;5032843;28;19905;-82
2022/05/21 06:38:34;;;;;;;;;;;35.80;53.60;;;;;;5033412;28;20353;-82
2022/05/21 06:41:00;;;;;;;;;;;36.70;53.40;;;;;;5032751;28;19955;-82
2022/05/21 06:43:26;;;;;;;;;;;36.00;53.00;;;;;;5032949;28;20412;-82
2022/05/21 06:45:52;;;;;;;;;;;35.40;53.60;;;;;;5014700;28;20015;-82
2022/05/21 06:48:18;;;;;;;;;;;37.20;52.80;;;;;;5032852;28;19959;-79
2022/05/21 06:50:43;;;;;;;;;;;38.20;52.10;;;;;;5042571;28;20359;-76
2022/05/21 06:53:09;;;;;;;;;;;39.70;50.20;;;;;;5021082;28;20360;-81
2022/05/21 06:55:37;;;;;;;;;;;40.90;49.00;;;;;;5038882;28;19961;-81
2022/05/21 06:58:03;;;;;;;;;;;41.60;46.90;;;;;;5032867;28;19912;-81
2022/05/21 07:00:28;;;;;;;;;;;41.70;46.60;;;;;;5032384;28;19916;-81
2022/05/21 07:02:54;;;;;;;;;;;41.80;46.50;;;;;;5032398;28;19909;-80
2022/05/21 07:08:05;;;;;;;;;;;40.60;47.10;;;;;;5035923;28;20379;-80
2022/05/21 07:10:31;;;;;;;;;;;40.00;48.10;;;;;;5019545;28;19905;-80
2022/05/21 07:12:58;;;;;;;;;;;39.30;47.80;;;;;;5045831;28;19916;-80
2022/05/21 07:15:24;;;;;;;;;;;38.80;49.20;;;;;;5036213;28;20534;-80
2022/05/21 07:17:49;;;;;;;;;;;37.60;49.70;;;;;;5033973;28;20248;-78
2022/05/21 07:20:17;;;;;;;;;;;35.90;54.70;;;;;;5037911;28;19905;-78
2022/05/21 07:22:43;;;;;;;;;;;34.90;57.70;;;;;;5056128;28;19905;-79
2022/05/21 07:25:11;;;;;;;;;;;33.50;60.00;;;;;;5052064;28;19944;-78
2022/05/21 07:27:37;;;;;;;;;;;32.30;63.40;;;;;;5036641;28;20284;-78
2022/05/21 07:30:03;;;;;;;;;;;31.90;66.20;;;;;;5036038;28;20329;-80
2022/05/21 07:32:28;;;;;;;;;;;31.70;67.70;;;;;;5035590;28;19905;-79
2022/05/21 07:35:04;;;;;;;;;;;31.60;67.80;;;;;;5035755;28;19909;-79
2022/05/21 07:37:29;;;;;;;;;;;31.00;68.10;;;;;;5036163;28;19905;-80
2022/05/21 07:39:55;;;;;;;;;;;29.70;71.50;;;;;;5048553;28;19949;-80
2022/05/21 07:42:22;;;;;;;;;;;28.90;73.10;;;;;;5056065;28;19974;-87
2022/05/21 07:44:48;;;;;;;;;;;28.70;72.70;;;;;;5056181;28;19905;-80
2022/05/21 07:47:14;;;;;;;;;;;28.20;75.30;;;;;;5055517;28;20341;-80
2022/05/21 07:49:39;;;;;;;;;;;28.30;75.80;;;;;;5056562;28;19920;-80
2022/05/21 07:52:06;;;;;;;;;;;28.00;77.30;;;;;;5069601;28;20043;-80
2022/05/21 07:54:31;;;;;;;;;;;27.90;79.40;;;;;;5054693;28;19951;-80
2022/05/21 07:56:57;;;;;;;;;;;27.60;80.40;;;;;;5036752;28;20314;-80
2022/05/21 07:59:23;;;;;;;;;;;27.90;81.30;;;;;;5054583;28;19960;-80
2022/05/21 08:01:58;;;;;;;;;;;28.00;79.80;;;;;;5017159;28;19968;-80
2022/05/21 08:04:24;;;;;;;;;;;27.70;80.40;;;;;;5004889;28;19909;-77
2022/05/21 08:06:50;;;;;;;;;;;27.60;79.10;;;;;;4993016;28;19913;-79
2022/05/21 08:09:16;;;;;;;;;;;27.40;78.20;;;;;;5013007;28;19983;-78
2022/05/21 08:11:42;;;;;;;;;;;27.70;78.80;;;;;;5014639;28;20301;-80
2022/05/21 08:14:08;;;;;;;;;;;27.80;77.00;;;;;;5010650;28;19960;-81
2022/05/21 08:16:35;;;;;;;;;;;28.00;76.50;;;;;;5014113;28;20348;-82
2022/05/21 08:19:01;;;;;;;;;;;27.80;77.70;;;;;;5012864;28;19905;-81
2022/05/21 08:21:27;;;;;;;;;;;27.80;78.30;;;;;;5014947;28;19913;-80
2022/05/21 08:26:57;;;;;;;;;;;28.40;75.90;;;;;;4984268;28;19933;-79
2022/05/21 08:29:25;;;;;;;;;;;28.50;75.00;;;;;;4999568;28;19997;-80
2022/05/21 08:31:51;;;;;;;;;;;27.90;75.80;;;;;;4995325;28;20192;-80
2022/05/21 08:34:17;;;;;;;;;;;27.90;76.50;;;;;;4995713;28;20040;-80
2022/05/21 08:36:42;;;;;;;;;;;28.00;75.80;;;;;;4995320;28;20358;-81
2022/05/21 08:39:11;;;;;;;;;;;27.70;75.20;;;;;;4994026;28;19965;-82
2022/05/21 08:41:42;;;;;;;;;;;27.60;76.10;;;;;;4995461;28;19906;-81
2022/05/21 08:44:22;;;;;;;;;;;27.60;75.70;;;;;;4993888;28;20282;-82
2022/05/21 08:47:07;;;;;;;;;;;27.60;75.30;;;;;;4995641;28;20322;-82
2022/05/21 08:49:34;;;;;;;;;;;27.90;74.70;;;;;;4995068;28;20306;-81
2022/05/21 08:52:09;;;;;;;;;;;28.00;73.90;;;;;;4994233;28;19943;-82
2022/05/21 08:54:39;;;;;;;;;;;28.20;72.90;;;;;;4994410;28;19910;-82
2022/05/21 08:57:08;;;;;;;;;;;27.70;72.00;;;;;;4994239;28;19917;-82
2022/05/21 08:59:40;;;;;;;;;;;27.60;73.40;;;;;;4993048;28;19975;-80
2022/05/21 09:02:11;;;;;;;;;;;27.40;74.40;;;;;;5036016;28;19916;-78
2022/05/21 09:04:37;;;;;;;;;;;27.10;74.70;;;;;;5034015;28;20371;-80
2022/05/21 09:07:08;;;;;;;;;;;26.90;75.10;;;;;;5033650;28;19905;-80
2022/05/21 09:09:33;;;;;;;;;;;27.10;75.60;;;;;;5033630;28;19940;-81
2022/05/21 09:13:09;;;;;;;9.65;2.33;;;27.40;72.80;;;;;;5093332;27;20124;-78
2022/05/21 09:18:22;;;;;;;10.80;2.83;;;27.20;72.70;;;;;;5067704;28;20032;-78
2022/05/21 09:20:59;;;;;;;12.30;3.10;;;27.00;72.30;;;;;;5100086;28;20060;-78
2022/05/21 09:23:46;;;;;;;6.03;2.25;;;26.90;72.90;;;;;;5067374;28;20033;-78
2022/05/21 09:26:12;;;;;;;9.27;2.35;;;26.90;71.70;;;;;;5067563;28;20464;-79
2022/05/21 09:28:39;;;;;;;8.65;2.60;;;27.00;72.10;;;;;;5067925;28;20092;-78
2022/05/21 09:31:06;;;;;;;;;;;26.80;71.00;;;;;;5069086;28;20033;-78
2022/05/21 09:33:38;;;;;;;11.75;2.58;;;26.60;72.50;;;;;;5068403;28;19984;-78
2022/05/21 09:36:06;;;;;;;7.80;2.47;;;26.80;73.60;;;;;;5068271;28;20021;-78
2022/05/21 09:38:36;;;;;;;7.93;2.53;;;26.80;70.90;;;;;;5068571;28;20108;-78
2022/05/21 09:41:13;;;;;;;7.68;2.85;;;26.60;71.80;;;;;;5066843;28;20414;-79
2022/05/21 09:47:25;;;;;;;6.10;2.30;;;26.40;69.80;;;;;;5046077;28;20538;-79
2022/05/21 09:50:07;;;;;;;6.30;2.40;;;26.70;69.80;;;;;;5064541;28;20499;-77
2022/05/21 09:52:34;;;;;;;10.10;2.17;;;26.50;68.50;;;;;;5067855;28;20041;-78
2022/05/21 09:55:17;;;;;;;8.55;2.00;;;26.50;67.80;;;;;;5067808;28;20025;-79
2022/05/21 09:57:43;;;;;;;7.13;2.08;;;26.60;65.90;;;;;;5068378;28;20029;-79
2022/05/21 10:00:33;;;;;;;8.38;2.50;;;26.50;64.10;;;;;;5067910;28;20116;-79
2022/05/21 10:03:03;;;;;;;6.57;1.90;;;26.20;65.00;;;;;;5067771;28;20060;-79
2022/05/21 10:05:39;;;;;;;9.90;2.05;;;25.90;66.30;;;;;;5067185;28;20051;-77
2022/05/21 10:11:03;;;;;;;8.95;2.35;;;26.30;65.50;;;;;;5067087;28;20051;-78
2022/05/21 10:13:35;;;;;;;9.75;2.30;;;26.30;66.70;;;;;;5067344;28;20107;-76
2022/05/21 10:16:18;;;;;;;7.80;2.28;;;26.40;65.20;;;;;;5067385;28;20112;-77
2022/05/21 10:19:00;;;;;;;9.40;2.53;;;26.20;65.50;;;;;;5066471;28;20036;-77
2022/05/21 10:21:49;;;;;;;6.95;2.15;;;26.20;66.00;;;;;;5067198;28;20044;-78
2022/05/21 10:24:47;;;;;;;5.65;2.20;;;26.20;64.70;;;;;;5065277;28;20150;-79
2022/05/21 10:27:40;;;;;;;8.35;3.00;;;25.90;66.50;;;;;;5074383;28;20025;-79
2022/05/21 10:30:23;;;;;;;7.07;2.50;;;26.20;66.50;;;;;;5074107;28;20093;-78
2022/05/21 10:33:27;;;;;;;11.30;2.67;;;26.40;67.50;;;;;;5074261;28;20036;-78
2022/05/21 10:36:34;;;;;;;8.02;2.38;;;26.50;65.20;;;;;;5072780;28;20035;-78
2022/05/21 10:39:24;;;;;;;7.70;3.97;;;26.30;65.00;;;;;;5051808;28;20163;-79
2022/05/21 10:42:08;;;;;;;5.20;2.60;;;26.30;59.60;;;;;;5051898;28;20029;-78
2022/05/21 10:44:46;;;;;;;8.73;2.58;;;26.30;60.60;;;;;;5052049;28;20236;-79
2022/05/21 10:47:24;;;;;;;5.28;2.28;;;26.40;62.10;;;;;;5051731;28;20529;-79
2022/05/21 10:49:59;;;;;;;6.60;2.55;;;26.50;63.00;;;;;;5051804;28;20484;-79
2022/05/21 10:52:46;;;;;;;21.77;4.30;;;26.40;65.10;;;;;;5051600;28;20065;-79
2022/05/21 10:55:18;;;;;;;23.83;3.70;;;26.20;68.60;;;;;;5052242;28;20730;-78
2022/05/21 10:57:57;;;;;;;14.02;2.65;;;26.30;70.00;;;;;;5052264;28;20500;-77
2022/05/21 11:00:48;;;;;;;20.45;5.60;;;26.40;71.20;;;;;;5051596;28;20428;-78
2022/05/21 11:03:22;;;;;;;14.32;3.75;;;26.70;73.20;;;;;;5051049;28;20171;-78
2022/05/21 11:06:00;;;;;;;9.35;2.88;;;26.70;74.50;;;;;;5051167;28;20424;-81
2022/05/21 11:08:58;;;;;;;9.25;3.05;;;26.80;77.50;;;;;;5051786;28;20041;-79
2022/05/21 11:11:57;;;;;;;10.60;2.97;;;26.90;77.30;;;;;;5045754;28;20045;-78
2022/05/21 11:14:37;;;;;;;5.63;2.33;;;27.00;78.70;;;;;;5051063;28;20040;-79
2022/05/21 11:17:28;;;;;;;9.77;2.63;;;26.90;79.00;;;;;;5054030;28;20029;-79
2022/05/21 11:20:03;;;;;;;5.65;2.25;;;26.60;80.40;;;;;;5054132;28;20457;-78
2022/05/21 11:23:04;;;;;;;9.73;3.20;;;26.60;80.30;;;;;;5052495;28;20036;-78
2022/05/21 11:25:50;;;;;;;11.07;2.55;;;26.80;80.00;;;;;;5054054;28;20025;-77
2022/05/21 11:28:49;;;;;;;8.95;2.70;;;26.70;81.00;;;;;;5053932;28;20519;-78
2022/05/21 11:37:20;;;;;;;13.40;2.70;;;26.80;80.20;;;;;;5053925;28;20041;-79
2022/05/21 11:39:43;;;;;;;5.70;2.00;;;26.50;81.20;;;;;;5053824;28;20040;-77
2022/05/21 11:42:14;;;;;;;11.55;2.80;;;26.40;82.10;;;;;;5054295;28;20031;-80
2022/05/21 11:44:55;;;;;;;11.05;2.72;;;26.40;80.20;;;;;;5052111;28;20021;-79
2022/05/21 11:47:29;;;;;;;11.50;3.15;;;26.60;79.10;;;;;;5051835;28;20051;-79
2022/05/21 11:49:59;;;;;;;13.48;2.80;;;26.80;78.10;;;;;;5052501;28;20036;-78
2022/05/21 11:52:31;;;;;;;8.00;2.40;;;26.80;78.00;;;;;;5052927;28;20029;-79
2022/05/21 11:54:57;;;;;;;12.20;2.85;;;26.90;78.80;;;;;;5052865;28;20021;-79
2022/05/21 11:57:45;;;;;;;11.65;2.85;;;26.90;78.90;;;;;;5052972;28;20032;-79
2022/05/21 12:00:26;;;;;;;10.52;2.85;;;26.90;78.80;;;;;;5053650;28;20218;-79
2022/05/21 12:02:58;;;;;;;12.48;2.80;;;27.10;78.60;;;;;;5052022;28;20420;-79
2022/05/21 12:05:33;;;;;;;8.85;2.97;;;27.10;77.20;;;;;;5053678;28;20055;-80
2022/05/21 12:08:14;;;;;;;8.15;2.63;;;27.10;76.70;;;;;;5053634;28;20056;-79
2022/05/21 12:10:58;;;;;;;9.20;2.60;;;27.00;75.90;;;;;;5052886;28;20052;-79
2022/05/21 12:13:33;;;;;;;13.18;2.58;;;27.00;75.60;;;;;;5053388;28;20024;-79
2022/05/21 12:16:00;;;;;;;7.72;2.35;;;27.20;75.20;;;;;;5053258;28;20021;-80
2022/05/21 12:18:33;;;;;;;9.07;2.47;;;27.30;73.40;;;;;;5052331;28;20044;-79
2022/05/21 12:21:00;;;;;;;11.32;2.50;;;27.50;71.70;;;;;;5054106;28;20094;-79
2022/05/21 12:23:33;;;;;;;11.38;2.45;;;27.70;70.90;;;;;;5053404;28;20033;-80
2022/05/21 12:26:08;;;;;;;8.25;2.13;;;27.80;68.90;;;;;;5053487;28;20432;-79
2022/05/21 12:29:12;;;;;;;5.30;2.10;;;28.00;69.90;;;;;;5053926;28;20021;-79
2022/05/21 12:31:57;;;;;;;10.83;2.30;;;28.20;66.00;;;;;;5053656;28;20025;-79
2022/05/21 12:34:31;;;;;;;7.35;2.05;;;28.20;66.10;;;;;;5053663;28;20032;-80
2022/05/21 12:37:06;;;;;;;7.63;2.10;;;28.40;65.80;;;;;;5053492;28;20036;-81
2022/05/21 12:39:49;;;;;;;4.43;1.80;;;28.50;64.30;;;;;;5053839;28;20017;-82
2022/05/21 12:42:44;;;;;;;7.88;1.80;;;28.40;63.70;;;;;;5053759;28;20025;-83
2022/05/21 12:45:42;;;;;;;4.97;1.75;;;28.50;64.50;;;;;;5053368;28;20075;-81
2022/05/21 12:48:31;;;;;;;8.45;2.05;;;28.60;64.30;;;;;;5059214;28;20037;-77
2022/05/21 12:51:00;;;;;;;6.72;2.10;;;28.50;64.80;;;;;;5071037;28;20484;-80
2022/05/21 12:53:29;;;;;;;11.30;2.75;;;28.50;64.60;;;;;;5073208;28;20031;-80
2022/05/21 12:56:26;;;;;;;8.25;2.00;;;28.30;65.00;;;;;;5073571;28;20039;-82
2022/05/21 12:59:06;;;;;;;7.60;2.10;;;28.50;64.40;;;;;;5072815;28;20081;-80
2022/05/21 13:01:34;;;;;;;5.97;2.00;;;28.60;64.70;;;;;;5073195;28;20380;-78
2022/05/21 13:04:01;;;;;;;7.18;1.85;;;28.70;65.10;;;;;;5072296;28;20017;-79
2022/05/21 13:06:31;;;;;;;4.65;2.00;;;28.70;64.80;;;;;;5071303;28;20380;-81
2022/05/21 13:09:04;;;;;;;5.70;1.95;;;28.70;64.30;;;;;;5070017;28;20429;-80
2022/05/21 13:11:41;;;;;;;8.52;2.03;;;28.80;64.30;;;;;;5071269;28;20134;-81
2022/05/21 13:14:11;;;;;;;6.80;1.90;;;28.80;64.30;;;;;;5069584;28;20026;-81
2022/05/21 13:16:55;;;;;;;6.22;1.90;;;28.80;64.00;;;;;;5071378;28;20038;-82
2022/05/21 13:20:10;;;;;;;10.07;1.90;;;28.80;63.90;;;;;;5051126;28;20031;-80
2022/05/21 13:22:54;;;;;;;;;;;28.80;64.20;;;;;;5011331;28;20109;-79
2022/05/21 13:25:22;;;;;;;6.05;1.77;;;28.90;62.40;;;;;;5011062;28;19988;-79
2022/05/21 13:27:56;;;;;;;7.47;2.15;;;28.80;62.20;;;;;;5010922;28;20037;-79
2022/05/21 13:30:28;;;;;;;7.28;1.95;;;28.70;62.40;;;;;;5011496;28;20477;-80
2022/05/21 13:32:59;;;;;;;7.70;2.08;;;28.70;62.60;;;;;;5011438;28;20046;-79
2022/05/21 13:35:37;;;;;;;6.10;1.98;;;28.60;61.50;;;;;;5011474;28;20110;-78
2022/05/21 13:38:06;;;;;;;6.75;1.92;;;28.60;61.90;;;;;;5011195;28;20441;-79
2022/05/21 13:40:45;;;;;;;7.75;2.17;;;28.70;61.80;;;;;;5010960;28;20116;-79
2022/05/21 13:43:12;;;;;;;23.77;2.33;;;28.60;62.10;;;;;;5011178;28;20510;-79
2022/05/21 13:45:51;;;;;;;5.65;1.60;;;28.70;63.30;;;;;;5010677;28;20092;-79
2022/05/21 13:48:21;;;;;;;7.03;1.73;;;28.60;63.10;;;;;;5011048;28;20030;-79
2022/05/21 13:50:49;;;;;;;5.28;2.00;;;28.60;63.50;;;;;;5010945;28;20175;-80
2022/05/21 13:53:26;;;;;;;5.72;1.88;;;28.40;63.40;;;;;;5032984;28;20041;-80
2022/05/21 13:56:04;;;;;;;5.03;1.77;;;28.50;63.30;;;;;;5051022;28;20381;-80
2022/05/21 13:58:39;;;;;;;6.05;1.77;;;28.60;63.50;;;;;;5054842;28;20458;-80
2022/05/21 14:01:29;;;;;;;6.80;1.83;;;28.60;63.40;;;;;;5054548;28;20029;-79
2022/05/21 14:04:09;;;;;;;12.18;2.45;;;28.30;64.30;;;;;;5056331;28;20075;-79
2022/05/21 14:06:45;;;;;;;6.57;2.55;;;28.20;64.50;;;;;;5055875;28;20035;-79
2022/05/21 14:09:33;;;;;;;6.43;2.00;;;28.10;65.20;;;;;;5055895;28;20025;-79
2022/05/21 14:12:06;;;;;;;6.28;2.17;;;28.30;65.20;;;;;;5053547;28;20044;-79
2022/05/21 14:14:38;;;;;;;5.43;2.05;;;28.30;64.90;;;;;;5055449;28;20465;-78
2022/05/21 14:17:56;;;;;;;10.15;2.35;;;28.40;65.40;;;;;;5055473;28;20087;-79
2022/05/21 14:20:26;;;;;;;5.90;2.10;;;28.40;65.30;;;;;;5054416;28;20048;-78
2022/05/21 14:22:53;;;;;;;5.43;2.35;;;28.40;65.50;;;;;;5054879;28;20029;-78
2022/05/21 14:25:24;;;;;;;12.38;2.15;;;28.30;66.40;;;;;;5054775;28;20024;-78
2022/05/21 14:28:16;;;;;;;5.55;1.90;;;28.40;66.40;;;;;;5053263;28;20025;-77
2022/05/21 14:30:46;;;;;;;7.70;2.13;;;28.50;66.70;;;;;;5054959;28;20445;-78
2022/05/21 14:33:18;;;;;;;7.22;2.45;;;28.50;66.70;;;;;;5055086;28;20469;-77
2022/05/21 14:35:46;;;;;;;6.60;2.88;;;28.30;66.80;;;;;;5054630;28;20022;-79
2022/05/21 14:38:19;;;;;;;10.05;3.03;;;28.20;67.40;;;;;;5054747;28;20036;-78
2022/05/21 14:40:58;;;;;;;9.65;2.63;;;28.10;67.40;;;;;;5054756;28;20036;-77
2022/05/21 14:43:34;;;;;;;9.48;2.70;;;28.00;67.50;;;;;;5055021;28;20033;-79
2022/05/21 14:46:01;;;;;;;6.95;2.70;;;28.00;67.30;;;;;;5054649;28;20025;-79